createdAt,value
2022-11-20T00:22:05.092Z,0.88
2022-11-20T00:52:09.268Z,1.12
2022-11-20T01:22:13.382Z,1.42
2022-11-20T01:52:19.427Z,1.47
2022-11-20T02:22:29.183Z,1.56
2022-11-20T02:52:33.616Z,1.51
2022-11-20T03:22:37.798Z,1.37
2022-11-20T03:52:42.548Z,1.27
2022-11-20T04:22:47.893Z,1.36
2022-11-20T04:52:52.286Z,1.15
2022-11-20T05:22:58.601Z,1.32
2022-11-20T05:53:02.806Z,1.16
2022-11-20T06:23:06.986Z,1.52
2022-11-20T06:53:11.214Z,1.48
2022-11-20T07:23:15.396Z,1.74
2022-11-20T07:53:21.666Z,2.09
2022-11-20T08:23:26.221Z,2.41
2022-11-20T08:53:30.485Z,2.89
2022-11-20T09:23:36.623Z,3.26
2022-11-20T09:53:48.876Z,3.57
2022-11-20T10:24:05.186Z,3.50
2022-11-20T10:54:19.065Z,4.32
2022-11-20T11:24:42.789Z,6.05
2022-11-20T11:54:51.485Z,4.66
2022-11-20T12:24:59.664Z,4.86
2022-11-20T12:55:17.038Z,4.49
2022-11-20T13:25:29.007Z,4.43
2022-11-20T13:55:39.898Z,4.97
2022-11-20T14:25:47.212Z,5.23
2022-11-20T14:55:59.145Z,5.16
2022-11-20T15:26:03.533Z,5.01
2022-11-20T15:56:08.371Z,4.93
2022-11-20T16:26:13.724Z,4.63
2022-11-20T16:56:19.133Z,4.84
2022-11-20T17:26:24.960Z,4.89
2022-11-20T17:56:49.460Z,4.64
2022-11-20T18:26:53.724Z,4.30
2022-11-20T18:56:57.875Z,4.21
2022-11-20T19:27:02.229Z,4.44
2022-11-20T19:57:06.454Z,4.72
2022-11-20T20:27:11.011Z,4.86
2022-11-20T20:57:15.523Z,4.90
2022-11-20T21:27:19.646Z,4.78
2022-11-20T21:57:23.754Z,4.74
2022-11-20T22:27:27.929Z,4.48
2022-11-20T22:57:32.506Z,4.31
2022-11-20T23:27:36.614Z,4.32
2022-11-20T23:57:40.685Z,4.44
